Parintins, Brazil
Current Conditions -  °F | °C
As of 6:15 AM on Thursday 23 Oct 2014 (Local Time) from SBIC Reporting Station
Haze Haze  
Wind Chill: 77°   Ceiling: 600
Heat Index: 78°   Visibility: 1.2mi
Dew Point: 77°   Wind: 3mph
Humidity: 100%   Direction: 350°N
Pressure: 29.88"   Gusts: NA
Location:  2.61°S, 56.74°W
Report Text: SBIC 231015Z 35003KT 2000 BR OVC006 25/25 Q1012
Loading
Personal Weather Stations






























Interactive Weather Map New forecast layout! Learn more

10-Day Weather Forecast

Advertisements
Track Severe Weather on mobile